createdAt,value
2016-12-10T00:00:11.460Z,1018.2
2016-12-10T00:00:51.933Z,1018.25
2016-12-10T00:01:32.500Z,1018.3
2016-12-10T00:02:12.924Z,1018.27
2016-12-10T00:02:53.417Z,1018.18
2016-12-10T00:03:33.900Z,1018.23
2016-12-10T00:04:14.386Z,1018.3
2016-12-10T00:04:54.863Z,1018.29
2016-12-10T00:05:35.365Z,1018.3
2016-12-10T00:06:15.831Z,1018.35
2016-12-10T00:06:56.282Z,1018.21
2016-12-10T00:07:36.774Z,1018.24
2016-12-10T00:08:17.230Z,1018.2
2016-12-10T00:08:57.705Z,1018.22
2016-12-10T00:09:38.202Z,1018.26
2016-12-10T00:10:18.652Z,1018.15
2016-12-10T00:10:59.136Z,1018.2
2016-12-10T00:11:39.599Z,1018.26
2016-12-10T00:12:20.110Z,1018.21
2016-12-10T00:13:00.581Z,1018.34
2016-12-10T00:13:41.046Z,1018.23
2016-12-10T00:14:21.542Z,1018.2
2016-12-10T00:15:02.024Z,1018.22
2016-12-10T00:15:42.509Z,1018.24
2016-12-10T00:16:22.993Z,1018.24
2016-12-10T00:17:03.465Z,1018.25
2016-12-10T00:17:43.945Z,1018.33
2016-12-10T00:18:24.431Z,1018.24
2016-12-10T00:19:04.909Z,1018.24
2016-12-10T00:19:45.419Z,1018.18
2016-12-10T00:20:25.869Z,1018.17
2016-12-10T00:21:06.330Z,1018.19
2016-12-10T00:21:46.813Z,1018.3
2016-12-10T00:22:27.338Z,1018.2
2016-12-10T00:23:07.817Z,1018.26
2016-12-10T00:23:48.325Z,1018.2
2016-12-10T00:24:28.773Z,1018.33
2016-12-10T00:25:09.248Z,1018.27
2016-12-10T00:25:49.738Z,1018.35
2016-12-10T00:26:30.202Z,1018.38
2016-12-10T00:27:10.665Z,1018.19
2016-12-10T00:27:51.175Z,1018.19
2016-12-10T00:28:31.659Z,1018.33
2016-12-10T00:29:12.158Z,1018.22
2016-12-10T00:29:52.618Z,1018.28
2016-12-10T00:30:33.072Z,1018.27
2016-12-10T00:31:13.570Z,1018.15
2016-12-10T00:31:54.019Z,1018.25
2016-12-10T00:32:34.494Z,1018.18
2016-12-10T00:33:14.921Z,1018.3
2016-12-10T00:33:55.417Z,1018.36
2016-12-10T00:34:35.883Z,1018.26
2016-12-10T00:35:16.368Z,1018.22
2016-12-10T00:35:56.865Z,1018.31
2016-12-10T00:36:37.331Z,1018.22
2016-12-10T00:37:17.812Z,1018.31
2016-12-10T00:37:58.277Z,1018.31
2016-12-10T00:38:38.782Z,1018.32
2016-12-10T00:39:19.243Z,1018.25
2016-12-10T00:39:59.735Z,1018.22
2016-12-10T00:40:40.221Z,1018.31
2016-12-10T00:41:20.735Z,1018.36
2016-12-10T00:42:01.237Z,1018.3
2016-12-10T00:42:41.699Z,1018.33
2016-12-10T00:43:22.188Z,1018.45
2016-12-10T00:44:02.688Z,1018.29
2016-12-10T00:44:43.147Z,1018.19
2016-12-10T00:45:23.654Z,1018.14
2016-12-10T00:46:04.128Z,1018.23
2016-12-10T00:46:44.584Z,1018.33
2016-12-10T00:47:25.074Z,1018.22
2016-12-10T00:48:05.581Z,1018.29
2016-12-10T00:48:46.041Z,1018.3
2016-12-10T00:49:26.542Z,1018.3
2016-12-10T00:50:07.005Z,1018.32
2016-12-10T00:50:47.525Z,1018.17
2016-12-10T00:51:27.992Z,1018.33
2016-12-10T00:52:08.477Z,1018.22
2016-12-10T00:52:48.933Z,1018.18
2016-12-10T00:53:29.394Z,1018.29
2016-12-10T00:54:09.873Z,1018.33
2016-12-10T00:54:50.336Z,1018.33
2016-12-10T00:55:30.828Z,1018.24
2016-12-10T00:56:11.295Z,1018.12
2016-12-10T00:56:51.775Z,1018.26
2016-12-10T00:57:32.230Z,1018.25
2016-12-10T00:58:12.715Z,1018.2
2016-12-10T00:58:53.202Z,1018.22
2016-12-10T00:59:33.676Z,1018.21
2016-12-10T01:00:14.147Z,1018.18
2016-12-10T01:00:54.629Z,1018.33
2016-12-10T01:01:35.114Z,1018.22
2016-12-10T01:02:15.612Z,1018.19
2016-12-10T01:02:56.071Z,1018.08
2016-12-10T01:03:36.553Z,1018.17
2016-12-10T01:04:17.020Z,1018.15
2016-12-10T01:04:57.502Z,1018.03
2016-12-10T01:05:37.994Z,1018.14
2016-12-10T01:06:18.486Z,1018.11
2016-12-10T01:06:58.971Z,1018.07
2016-12-10T01:07:39.456Z,1018.15
2016-12-10T01:08:19.919Z,1018.06
2016-12-10T01:09:00.376Z,1018.13
2016-12-10T01:09:40.872Z,1018.06
2016-12-10T01:10:21.370Z,1018.07
2016-12-10T01:11:01.817Z,1018.16
2016-12-10T01:11:42.348Z,1018.17
2016-12-10T01:12:22.827Z,1018.02
2016-12-10T01:13:03.329Z,1018.08
2016-12-10T01:13:43.801Z,1018.02
2016-12-10T01:14:24.299Z,1018.14
2016-12-10T01:15:04.762Z,1018.04
2016-12-10T01:15:45.269Z,1018
2016-12-10T01:16:25.719Z,1018.15
2016-12-10T01:17:06.206Z,1018
2016-12-10T01:17:46.670Z,1018
2016-12-10T01:18:27.175Z,1017.83
2016-12-10T01:19:07.648Z,1017.94
2016-12-10T01:19:48.137Z,1017.89
2016-12-10T01:20:28.604Z,1017.9
2016-12-10T01:21:09.056Z,1017.91
2016-12-10T01:21:49.537Z,1017.88
2016-12-10T01:22:29.995Z,1017.87
2016-12-10T01:23:10.511Z,1017.9
2016-12-10T01:23:51.006Z,1017.89
2016-12-10T01:24:31.473Z,1017.94
2016-12-10T01:25:11.951Z,1017.84
2016-12-10T01:25:52.428Z,1017.82
2016-12-10T01:26:32.912Z,1017.87
2016-12-10T01:27:13.376Z,1017.84
2016-12-10T01:27:53.835Z,1017.85
2016-12-10T01:28:34.321Z,1017.82
2016-12-10T01:29:14.798Z,1017.84
2016-12-10T01:29:55.297Z,1017.91
2016-12-10T01:30:35.776Z,1017.99
2016-12-10T01:31:16.252Z,1018.01
2016-12-10T01:31:56.736Z,1017.87
2016-12-10T01:32:37.220Z,1017.89
2016-12-10T01:33:17.688Z,1017.81
2016-12-10T01:33:58.205Z,1017.96
2016-12-10T01:34:38.684Z,1017.88
2016-12-10T01:35:19.167Z,1017.89
2016-12-10T01:35:59.662Z,1017.98
2016-12-10T01:36:40.154Z,1017.9
2016-12-10T01:37:20.632Z,1017.89
2016-12-10T01:38:01.087Z,1018.05
2016-12-10T01:38:41.568Z,1017.97
2016-12-10T01:39:22.071Z,1018.01
2016-12-10T01:40:02.578Z,1017.89
2016-12-10T01:40:43.053Z,1017.8
2016-12-10T01:41:23.547Z,1017.88
2016-12-10T01:42:04.043Z,1017.84
2016-12-10T01:42:44.506Z,1017.82
2016-12-10T01:43:25.017Z,1017.84
2016-12-10T01:44:05.493Z,1017.75
2016-12-10T01:44:45.924Z,1017.81
2016-12-10T01:45:26.442Z,1017.73
2016-12-10T01:46:06.926Z,1017.77
2016-12-10T01:46:47.430Z,1017.92
2016-12-10T01:47:27.916Z,1017.83
2016-12-10T01:48:08.395Z,1017.82
2016-12-10T01:48:48.886Z,1017.8
2016-12-10T01:49:29.357Z,1017.84
2016-12-10T01:50:09.851Z,1017.84
2016-12-10T01:50:50.324Z,1017.91
2016-12-10T01:51:30.801Z,1017.83
2016-12-10T01:52:11.287Z,1017.94
2016-12-10T01:52:51.746Z,1017.98
2016-12-10T01:53:32.225Z,1017.9
2016-12-10T01:54:12.701Z,1018.07
2016-12-10T01:54:53.203Z,1017.93
2016-12-10T01:55:33.662Z,1017.92
2016-12-10T01:56:14.168Z,1017.93
2016-12-10T01:56:54.638Z,1017.92
2016-12-10T01:57:35.115Z,1017.93
2016-12-10T01:58:15.617Z,1017.93
2016-12-10T01:58:56.111Z,1017.96
2016-12-10T01:59:36.594Z,1018.01
2016-12-10T02:00:17.060Z,1017.85
2016-12-10T02:00:57.551Z,1017.8
2016-12-10T02:01:38.071Z,1018.03
2016-12-10T02:02:18.554Z,1017.86
2016-12-10T02:02:59.043Z,1017.89
2016-12-10T02:03:39.513Z,1017.93
2016-12-10T02:04:19.974Z,1017.83
2016-12-10T02:05:00.474Z,1017.85
2016-12-10T02:05:40.952Z,1017.99
2016-12-10T02:06:21.437Z,1017.88
2016-12-10T02:07:01.941Z,1017.86
2016-12-10T02:07:42.478Z,1017.91
2016-12-10T02:08:22.928Z,1017.97
2016-12-10T02:09:03.425Z,1017.84
2016-12-10T02:09:43.885Z,1017.85
2016-12-10T02:10:24.371Z,1017.74
2016-12-10T02:11:04.859Z,1017.8
2016-12-10T02:11:45.333Z,1017.8
2016-12-10T02:12:25.817Z,1017.79
2016-12-10T02:13:06.296Z,1017.81
2016-12-10T02:13:46.756Z,1017.78
2016-12-10T02:14:27.275Z,1017.79
2016-12-10T02:15:07.764Z,1017.79
2016-12-10T02:15:48.236Z,1017.92
2016-12-10T02:16:28.740Z,1017.85
2016-12-10T02:17:09.217Z,1017.79
2016-12-10T02:17:49.711Z,1017.82
2016-12-10T02:18:30.195Z,1017.82
2016-12-10T02:19:10.713Z,1017.87
2016-12-10T02:19:51.172Z,1017.79
2016-12-10T02:20:31.651Z,1017.85
2016-12-10T02:21:12.154Z,1017.81
2016-12-10T02:21:52.644Z,1017.83
2016-12-10T02:22:33.134Z,1017.78
2016-12-10T02:23:13.593Z,1017.84
2016-12-10T02:23:54.091Z,1017.91
2016-12-10T02:24:34.564Z,1017.79
2016-12-10T02:25:15.024Z,1017.89
2016-12-10T02:25:55.480Z,1017.83
2016-12-10T02:26:35.951Z,1017.8
2016-12-10T02:27:16.453Z,1017.79
2016-12-10T02:27:56.912Z,1017.87
2016-12-10T02:28:37.411Z,1017.82
2016-12-10T02:29:17.876Z,1017.77
2016-12-10T02:29:58.342Z,1017.71
2016-12-10T02:30:38.813Z,1017.78
2016-12-10T02:31:19.272Z,1017.71
2016-12-10T02:31:59.738Z,1017.76
2016-12-10T02:32:40.230Z,1017.85
2016-12-10T02:33:20.748Z,1017.85
2016-12-10T02:34:01.222Z,1017.87
2016-12-10T02:34:41.698Z,1017.92
2016-12-10T02:35:22.179Z,1017.74
2016-12-10T02:36:02.755Z,1017.83
2016-12-10T02:36:43.245Z,1017.73
2016-12-10T02:37:23.741Z,1017.66
2016-12-10T02:38:04.201Z,1017.68
2016-12-10T02:38:44.671Z,1017.61
2016-12-10T02:39:25.176Z,1017.7
2016-12-10T02:40:05.653Z,1017.75
2016-12-10T02:40:46.130Z,1017.71
2016-12-10T02:41:26.618Z,1017.78
2016-12-10T02:42:07.088Z,1017.63
2016-12-10T02:42:47.573Z,1017.64
2016-12-10T02:43:28.056Z,1017.67
2016-12-10T02:44:08.548Z,1017.68
2016-12-10T02:44:49.032Z,1017.7
2016-12-10T02:45:29.504Z,1017.7
2016-12-10T02:46:09.988Z,1017.62
2016-12-10T02:46:50.477Z,1017.73
2016-12-10T02:47:30.930Z,1017.58
2016-12-10T02:48:11.447Z,1017.66
2016-12-10T02:48:51.917Z,1017.65
2016-12-10T02:49:32.426Z,1017.59
2016-12-10T02:50:12.876Z,1017.71
2016-12-10T02:50:53.337Z,1017.61
2016-12-10T02:51:33.818Z,1017.55
2016-12-10T02:52:14.290Z,1017.57
2016-12-10T02:52:54.782Z,1017.55
2016-12-10T02:53:35.272Z,1017.5
2016-12-10T02:54:15.741Z,1017.62
2016-12-10T02:54:56.230Z,1017.62
2016-12-10T02:55:36.720Z,1017.56
2016-12-10T02:56:17.209Z,1017.54
2016-12-10T02:56:57.649Z,1017.58
2016-12-10T02:57:38.136Z,1017.52
2016-12-10T02:58:18.604Z,1017.63
2016-12-10T02:58:59.079Z,1017.49
2016-12-10T02:59:39.591Z,1017.53
2016-12-10T03:00:20.038Z,1017.65
2016-12-10T03:01:00.525Z,1017.65
2016-12-10T03:01:41.023Z,1017.68
2016-12-10T03:02:21.488Z,1017.57
2016-12-10T03:03:01.961Z,1017.52
2016-12-10T03:03:42.436Z,1017.53
2016-12-10T03:04:22.932Z,1017.57
2016-12-10T03:05:03.429Z,1017.56
2016-12-10T03:05:43.907Z,1017.55
2016-12-10T03:06:24.363Z,1017.64
2016-12-10T03:07:04.839Z,1017.64
2016-12-10T03:07:45.357Z,1017.6
2016-12-10T03:08:25.810Z,1017.68
2016-12-10T03:09:06.291Z,1017.6
2016-12-10T03:09:46.780Z,1017.6
2016-12-10T03:10:27.326Z,1017.51
2016-12-10T03:11:07.857Z,1017.55
2016-12-10T03:11:48.330Z,1017.5
2016-12-10T03:12:28.813Z,1017.5
2016-12-10T03:13:09.279Z,1017.5
2016-12-10T03:13:49.770Z,1017.47
2016-12-10T03:14:30.256Z,1017.51
2016-12-10T03:15:10.735Z,1017.45
2016-12-10T03:15:51.187Z,1017.39
2016-12-10T03:16:31.647Z,1017.41
2016-12-10T03:17:12.101Z,1017.45
2016-12-10T03:17:52.606Z,1017.43
2016-12-10T03:18:33.078Z,1017.34
2016-12-10T03:19:13.556Z,1017.31
2016-12-10T03:19:54.042Z,1017.24
2016-12-10T03:20:34.546Z,1017.18
2016-12-10T03:21:15.003Z,1017.2
2016-12-10T03:21:55.506Z,1017.17
2016-12-10T03:22:35.968Z,1017.18
2016-12-10T03:23:16.442Z,1017.19
2016-12-10T03:23:56.899Z,1017.19
2016-12-10T03:24:37.373Z,1017.15
2016-12-10T03:25:17.866Z,1017.21
2016-12-10T03:25:58.342Z,1017.12
2016-12-10T03:26:38.811Z,1017.15
2016-12-10T03:27:19.323Z,1017.29
2016-12-10T03:27:59.789Z,1017.22
2016-12-10T03:28:40.281Z,1017.13
2016-12-10T03:29:20.724Z,1017.26
2016-12-10T03:30:01.201Z,1017.2
2016-12-10T03:30:41.657Z,1017.2
2016-12-10T03:31:22.132Z,1017.16
2016-12-10T03:32:02.589Z,1017.1
2016-12-10T03:32:43.080Z,1017.09
2016-12-10T03:33:23.542Z,1017.18
2016-12-10T03:34:03.993Z,1017.31
2016-12-10T03:34:44.454Z,1017.09
2016-12-10T03:35:24.937Z,1017.14
2016-12-10T03:36:05.426Z,1017.08
2016-12-10T03:36:45.904Z,1017.1
2016-12-10T03:37:26.353Z,1016.93
2016-12-10T03:38:06.856Z,1017.04
2016-12-10T03:38:47.304Z,1016.97
2016-12-10T03:39:27.770Z,1016.91
2016-12-10T03:40:08.231Z,1017.04
2016-12-10T03:40:48.720Z,1016.95
2016-12-10T03:41:29.175Z,1017.03
2016-12-10T03:42:09.671Z,1016.95
2016-12-10T03:42:50.156Z,1016.86
2016-12-10T03:43:30.676Z,1016.96
2016-12-10T03:44:11.118Z,1016.88
2016-12-10T03:44:51.607Z,1016.93
2016-12-10T03:45:32.097Z,1016.95
2016-12-10T03:46:12.579Z,1016.99
2016-12-10T03:46:53.059Z,1016.98
2016-12-10T03:47:33.550Z,1016.95
2016-12-10T03:48:14.029Z,1017.01
2016-12-10T03:48:54.531Z,1017.04
2016-12-10T03:49:34.990Z,1016.97
2016-12-10T03:50:15.477Z,1017.07
2016-12-10T03:50:55.908Z,1017.03
2016-12-10T03:51:36.380Z,1017.05
2016-12-10T03:52:16.879Z,1016.98
2016-12-10T03:52:57.404Z,1017.04
2016-12-10T03:53:37.864Z,1016.99
2016-12-10T03:54:18.322Z,1017.07
2016-12-10T03:54:58.805Z,1017.02
2016-12-10T03:55:39.296Z,1016.92
2016-12-10T03:56:19.755Z,1017.01
2016-12-10T03:57:00.233Z,1017.08
2016-12-10T03:57:40.706Z,1017.09
2016-12-10T03:58:21.178Z,1017.02
2016-12-10T03:59:01.613Z,1016.93
2016-12-10T03:59:42.121Z,1017.1
2016-12-10T04:00:22.594Z,1017.01
2016-12-10T04:01:03.070Z,1016.92
2016-12-10T04:01:43.537Z,1017.02
2016-12-10T04:02:24.006Z,1017.06
2016-12-10T04:03:04.493Z,1016.88
2016-12-10T04:03:44.976Z,1016.89
2016-12-10T04:04:25.463Z,1016.91
2016-12-10T04:05:05.962Z,1016.86
2016-12-10T04:05:46.441Z,1016.96
2016-12-10T04:06:26.923Z,1016.96
2016-12-10T04:07:07.370Z,1016.92
2016-12-10T04:07:47.824Z,1016.94
2016-12-10T04:08:28.255Z,1016.93
2016-12-10T04:09:08.747Z,1016.88
2016-12-10T04:09:49.287Z,1016.85
2016-12-10T04:10:29.796Z,1016.87
2016-12-10T04:11:10.294Z,1016.83
2016-12-10T04:11:50.764Z,1016.82
2016-12-10T04:12:31.254Z,1016.84
2016-12-10T04:13:11.742Z,1016.8
2016-12-10T04:13:52.212Z,1016.82
2016-12-10T04:14:32.694Z,1016.89
2016-12-10T04:15:13.156Z,1016.84
2016-12-10T04:15:53.638Z,1016.85
2016-12-10T04:16:34.117Z,1016.73
2016-12-10T04:17:14.601Z,1016.72
2016-12-10T04:17:55.064Z,1016.77
2016-12-10T04:18:35.550Z,1016.74
2016-12-10T04:19:16.023Z,1016.76
2016-12-10T04:19:56.513Z,1016.73
2016-12-10T04:20:36.982Z,1016.73
2016-12-10T04:21:17.453Z,1016.76
2016-12-10T04:21:57.917Z,1016.77
2016-12-10T04:22:38.389Z,1016.65
2016-12-10T04:23:18.901Z,1016.94
2016-12-10T04:23:59.347Z,1016.74
2016-12-10T04:24:39.846Z,1016.68
2016-12-10T04:25:20.323Z,1016.59
2016-12-10T04:26:00.817Z,1016.65
2016-12-10T04:26:41.299Z,1016.67
2016-12-10T04:27:21.780Z,1016.62
2016-12-10T04:28:02.260Z,1016.72
2016-12-10T04:28:42.740Z,1016.65
2016-12-10T04:29:23.230Z,1016.66
2016-12-10T04:30:03.722Z,1016.64
2016-12-10T04:30:44.193Z,1016.7
2016-12-10T04:31:24.674Z,1016.64
2016-12-10T04:32:05.154Z,1016.76
2016-12-10T04:32:45.619Z,1016.66
2016-12-10T04:33:26.095Z,1016.64
2016-12-10T04:34:06.584Z,1016.65
2016-12-10T04:34:47.044Z,1016.72
2016-12-10T04:35:27.529Z,1016.6
2016-12-10T04:36:08.001Z,1016.58
2016-12-10T04:36:48.505Z,1016.6
2016-12-10T04:37:28.965Z,1016.61
2016-12-10T04:38:09.417Z,1016.58
2016-12-10T04:38:49.936Z,1016.62
2016-12-10T04:39:30.385Z,1016.55
2016-12-10T04:40:10.850Z,1016.56
2016-12-10T04:40:51.338Z,1016.52
2016-12-10T04:41:31.757Z,1016.55
2016-12-10T04:42:12.230Z,1016.57
2016-12-10T04:42:52.699Z,1016.58
2016-12-10T04:43:33.163Z,1016.5
2016-12-10T04:44:13.640Z,1016.63
2016-12-10T04:44:54.100Z,1016.54
2016-12-10T04:45:34.580Z,1016.57
2016-12-10T04:46:15.053Z,1016.48
2016-12-10T04:46:55.514Z,1016.48
2016-12-10T04:47:36.012Z,1016.52
2016-12-10T04:48:16.489Z,1016.52
2016-12-10T04:48:57.040Z,1016.49
2016-12-10T04:49:37.525Z,1016.52
2016-12-10T04:50:17.992Z,1016.51
2016-12-10T04:50:58.483Z,1016.53
2016-12-10T04:51:38.949Z,1016.47
2016-12-10T04:52:19.435Z,1016.5
2016-12-10T04:52:59.923Z,1016.51
2016-12-10T04:53:40.377Z,1016.49
2016-12-10T04:54:20.825Z,1016.48
2016-12-10T04:55:01.332Z,1016.49
2016-12-10T04:55:41.809Z,1016.53
2016-12-10T04:56:22.274Z,1016.52
2016-12-10T04:57:02.807Z,1016.43
2016-12-10T04:57:43.208Z,1016.42
2016-12-10T04:58:23.695Z,1016.47
2016-12-10T04:59:04.178Z,1016.43
2016-12-10T04:59:44.660Z,1016.57
2016-12-10T05:00:25.164Z,1016.5
2016-12-10T05:01:05.655Z,1016.46
2016-12-10T05:01:46.118Z,1016.48
2016-12-10T05:02:26.618Z,1016.47
2016-12-10T05:03:07.083Z,1016.49
2016-12-10T05:03:47.567Z,1016.46
2016-12-10T05:04:28.037Z,1016.44
2016-12-10T05:05:08.526Z,1016.43
2016-12-10T05:05:49.001Z,1016.49
2016-12-10T05:06:29.519Z,1016.56
2016-12-10T05:07:10.009Z,1016.43
2016-12-10T05:07:50.503Z,1016.41
2016-12-10T05:08:30.970Z,1016.35
2016-12-10T05:09:11.438Z,1016.45
2016-12-10T05:09:51.942Z,1016.39
2016-12-10T05:10:32.424Z,1016.48
2016-12-10T05:11:12.878Z,1016.51
2016-12-10T05:11:53.391Z,1016.34
2016-12-10T05:12:33.839Z,1016.42
2016-12-10T05:13:14.297Z,1016.47
2016-12-10T05:13:54.767Z,1016.39
2016-12-10T05:14:35.254Z,1016.39
2016-12-10T05:15:15.731Z,1016.46
2016-12-10T05:15:56.217Z,1016.33
2016-12-10T05:16:36.708Z,1016.45
2016-12-10T05:17:17.189Z,1016.4
2016-12-10T05:17:57.714Z,1016.36
2016-12-10T05:18:38.209Z,1016.44
2016-12-10T05:19:18.753Z,1016.31
2016-12-10T05:19:59.212Z,1016.36
2016-12-10T05:20:39.721Z,1016.37
2016-12-10T05:21:20.198Z,1016.43
2016-12-10T05:22:00.657Z,1016.36
2016-12-10T05:22:41.122Z,1016.26
2016-12-10T05:23:21.612Z,1016.31
2016-12-10T05:24:02.076Z,1016.38
2016-12-10T05:24:42.590Z,1016.36
2016-12-10T05:25:23.030Z,1016.35
2016-12-10T05:26:03.506Z,1016.29
2016-12-10T05:26:43.980Z,1016.33
2016-12-10T05:27:24.420Z,1016.41
2016-12-10T05:28:04.882Z,1016.37
2016-12-10T05:28:45.383Z,1016.32
2016-12-10T05:29:25.839Z,1016.25
2016-12-10T05:30:06.339Z,1016.35
2016-12-10T05:30:46.812Z,1016.35
2016-12-10T05:31:27.289Z,1016.36
2016-12-10T05:32:07.783Z,1016.25
2016-12-10T05:32:48.246Z,1016.29
2016-12-10T05:33:28.734Z,1016.25
2016-12-10T05:34:09.190Z,1016.32
2016-12-10T05:34:49.711Z,1016.29
2016-12-10T05:35:30.183Z,1016.34
2016-12-10T05:36:10.651Z,1016.25
2016-12-10T05:36:51.125Z,1016.34
2016-12-10T05:37:31.593Z,1016.36
2016-12-10T05:38:12.084Z,1016.26
2016-12-10T05:38:52.603Z,1016.31
2016-12-10T05:39:33.060Z,1016.26
2016-12-10T05:40:13.570Z,1016.28
2016-12-10T05:40:54.035Z,1016.18
2016-12-10T05:41:34.526Z,1016.3
2016-12-10T05:42:15.068Z,1016.39
2016-12-10T05:42:55.520Z,1016.25
2016-12-10T05:43:36.001Z,1016.32
2016-12-10T05:44:16.469Z,1016.29
2016-12-10T05:44:56.955Z,1016.3
2016-12-10T05:45:37.473Z,1016.26
2016-12-10T05:46:17.924Z,1016.28
2016-12-10T05:46:58.391Z,1016.29
2016-12-10T05:47:38.900Z,1016.24
2016-12-10T05:48:19.349Z,1016.27
2016-12-10T05:48:59.807Z,1016.23
2016-12-10T05:49:40.336Z,1016.19
2016-12-10T05:50:20.823Z,1016.2
2016-12-10T05:51:01.308Z,1016.2
2016-12-10T05:51:41.754Z,1016.32
2016-12-10T05:52:22.256Z,1016.21
2016-12-10T05:53:02.724Z,1016.14
2016-12-10T05:53:43.222Z,1016.3
2016-12-10T05:54:23.680Z,1016.19
2016-12-10T05:55:04.175Z,1016.16
2016-12-10T05:55:44.630Z,1016.27
2016-12-10T05:56:25.093Z,1016.31
2016-12-10T05:57:05.546Z,1016.27
2016-12-10T05:57:46.023Z,1016.34
2016-12-10T05:58:26.490Z,1016.34
2016-12-10T05:59:06.970Z,1016.4
2016-12-10T05:59:47.434Z,1016.37
2016-12-10T06:00:27.881Z,1016.28
2016-12-10T06:01:08.366Z,1016.27
2016-12-10T06:01:48.883Z,1016.27
2016-12-10T06:02:29.313Z,1016.25
2016-12-10T06:03:09.811Z,1016.3
2016-12-10T06:03:50.305Z,1016.45
2016-12-10T06:04:30.791Z,1016.29
2016-12-10T06:05:11.269Z,1016.3
2016-12-10T06:05:51.788Z,1016.3
2016-12-10T06:06:32.253Z,1016.37
2016-12-10T06:07:12.760Z,1016.32
2016-12-10T06:07:53.236Z,1016.4
2016-12-10T06:08:33.706Z,1016.37
2016-12-10T06:09:14.180Z,1016.42
2016-12-10T06:09:54.641Z,1016.37
2016-12-10T06:10:35.125Z,1016.29
2016-12-10T06:11:15.604Z,1016.38
2016-12-10T06:11:56.054Z,1016.34
2016-12-10T06:12:36.541Z,1016.35
2016-12-10T06:13:16.982Z,1016.52
2016-12-10T06:13:57.526Z,1016.42
2016-12-10T06:14:37.977Z,1016.37
2016-12-10T06:15:18.446Z,1016.39
2016-12-10T06:15:58.948Z,1016.41
2016-12-10T06:16:39.411Z,1016.39
2016-12-10T06:17:19.860Z,1016.41
2016-12-10T06:18:00.346Z,1016.46
2016-12-10T06:18:40.855Z,1016.43
2016-12-10T06:19:21.366Z,1016.41
2016-12-10T06:20:01.832Z,1016.47
2016-12-10T06:20:42.321Z,1016.48
2016-12-10T06:21:22.788Z,1016.4
2016-12-10T06:22:03.295Z,1016.47
2016-12-10T06:22:43.767Z,1016.5
2016-12-10T06:23:24.280Z,1016.4
2016-12-10T06:24:04.730Z,1016.38
2016-12-10T06:24:45.213Z,1016.41
2016-12-10T06:25:25.693Z,1016.44
2016-12-10T06:26:06.170Z,1016.43
2016-12-10T06:26:46.647Z,1016.42
2016-12-10T06:27:27.115Z,1016.43
2016-12-10T06:28:07.601Z,1016.42
2016-12-10T06:28:48.082Z,1016.44
2016-12-10T06:29:28.578Z,1016.49
2016-12-10T06:30:09.067Z,1016.39
2016-12-10T06:30:49.525Z,1016.47
2016-12-10T06:31:30.012Z,1016.44
2016-12-10T06:32:10.506Z,1016.42
2016-12-10T06:32:50.992Z,1016.51
2016-12-10T06:33:31.467Z,1016.5
2016-12-10T06:34:11.929Z,1016.47
2016-12-10T06:34:52.428Z,1016.59
2016-12-10T06:35:32.889Z,1016.57
2016-12-10T06:36:13.352Z,1016.51
2016-12-10T06:36:53.857Z,1016.55
2016-12-10T06:37:34.326Z,1016.59
2016-12-10T06:38:14.804Z,1016.63
2016-12-10T06:38:55.307Z,1016.63
2016-12-10T06:39:35.767Z,1016.61
2016-12-10T06:40:16.248Z,1016.6
2016-12-10T06:40:56.749Z,1016.64
2016-12-10T06:41:37.207Z,1016.54
2016-12-10T06:42:17.682Z,1016.57
2016-12-10T06:42:58.161Z,1016.53
2016-12-10T06:43:38.628Z,1016.54
2016-12-10T06:44:19.137Z,1016.55
2016-12-10T06:44:59.621Z,1016.52
2016-12-10T06:45:40.087Z,1016.56
2016-12-10T06:46:20.557Z,1016.56
2016-12-10T06:47:01.033Z,1016.53
2016-12-10T06:47:41.530Z,1016.51
2016-12-10T06:48:21.987Z,1016.51
2016-12-10T06:49:02.457Z,1016.66
2016-12-10T06:49:42.946Z,1016.58
2016-12-10T06:50:23.408Z,1016.55
2016-12-10T06:51:03.871Z,1016.49
2016-12-10T06:51:44.339Z,1016.54
2016-12-10T06:52:24.842Z,1016.59
2016-12-10T06:53:05.330Z,1016.61
2016-12-10T06:53:45.779Z,1016.54
2016-12-10T06:54:26.224Z,1016.55
2016-12-10T06:55:06.699Z,1016.55
2016-12-10T06:55:47.192Z,1016.55
2016-12-10T06:56:27.675Z,1016.61
2016-12-10T06:57:08.171Z,1016.59
2016-12-10T06:57:48.670Z,1016.58
2016-12-10T06:58:29.134Z,1016.56
2016-12-10T06:59:09.604Z,1016.48
2016-12-10T06:59:50.072Z,1016.53
2016-12-10T07:00:30.560Z,1016.55
2016-12-10T07:01:11.003Z,1016.52
2016-12-10T07:01:51.463Z,1016.55
2016-12-10T07:02:31.957Z,1016.58
2016-12-10T07:03:12.447Z,1016.62
2016-12-10T07:03:52.883Z,1016.58
2016-12-10T07:04:33.373Z,1016.52
2016-12-10T07:05:13.807Z,1016.6
2016-12-10T07:05:54.298Z,1016.6
2016-12-10T07:06:34.761Z,1016.58
2016-12-10T07:07:15.258Z,1016.55
2016-12-10T07:07:55.728Z,1016.54
2016-12-10T07:08:36.230Z,1016.64
2016-12-10T07:09:16.696Z,1016.58
2016-12-10T07:09:57.175Z,1016.59
2016-12-10T07:10:37.656Z,1016.59
2016-12-10T07:11:18.152Z,1016.57
2016-12-10T07:11:58.617Z,1016.52
2016-12-10T07:12:39.117Z,1016.65
2016-12-10T07:13:19.575Z,1016.54
2016-12-10T07:14:00.056Z,1016.66
2016-12-10T07:14:40.570Z,1016.65
2016-12-10T07:15:21.044Z,1016.67
2016-12-10T07:16:01.551Z,1016.68
2016-12-10T07:16:42.028Z,1016.63
2016-12-10T07:17:22.473Z,1016.71
2016-12-10T07:18:02.992Z,1016.64
2016-12-10T07:18:43.470Z,1016.56
2016-12-10T07:19:23.949Z,1016.59
2016-12-10T07:20:04.447Z,1016.58
2016-12-10T07:20:44.911Z,1016.61
2016-12-10T07:21:25.418Z,1016.58
2016-12-10T07:22:05.862Z,1016.64
2016-12-10T07:22:46.341Z,1016.64
2016-12-10T07:23:26.806Z,1016.62
2016-12-10T07:24:07.274Z,1016.66
2016-12-10T07:24:47.755Z,1016.67
2016-12-10T07:25:28.230Z,1016.64
2016-12-10T07:26:08.719Z,1016.62
2016-12-10T07:26:49.220Z,1016.64
2016-12-10T07:27:29.698Z,1016.61
2016-12-10T07:28:10.174Z,1016.65
2016-12-10T07:28:50.666Z,1016.64
2016-12-10T07:29:31.171Z,1016.64
2016-12-10T07:30:11.649Z,1016.65
2016-12-10T07:30:52.171Z,1016.59
2016-12-10T07:31:32.609Z,1016.66
2016-12-10T07:32:13.086Z,1016.7
2016-12-10T07:32:53.590Z,1016.63
2016-12-10T07:33:34.077Z,1016.65
2016-12-10T07:34:14.568Z,1016.64
2016-12-10T07:34:55.039Z,1016.66
2016-12-10T07:35:35.494Z,1016.64
2016-12-10T07:36:15.950Z,1016.67
2016-12-10T07:36:56.422Z,1016.66
2016-12-10T07:37:36.905Z,1016.62
2016-12-10T07:38:17.408Z,1016.59
2016-12-10T07:38:57.891Z,1016.7
2016-12-10T07:39:38.379Z,1016.61
2016-12-10T07:40:18.840Z,1016.63
2016-12-10T07:40:59.341Z,1016.63
2016-12-10T07:41:40.334Z,1016.68
2016-12-10T07:42:24.398Z,1016.69
2016-12-10T07:43:04.869Z,1016.63
2016-12-10T07:43:45.453Z,1016.65
2016-12-10T07:44:25.994Z,1016.62
2016-12-10T07:45:06.834Z,1016.53
2016-12-10T07:45:47.384Z,1016.65
2016-12-10T07:46:28.130Z,1016.63
2016-12-10T07:47:09.440Z,1016.63
2016-12-10T07:47:49.873Z,1016.63
2016-12-10T07:48:30.364Z,1016.62
2016-12-10T07:49:10.838Z,1016.71
2016-12-10T07:49:51.315Z,1016.71
2016-12-10T07:50:32.132Z,1016.71
2016-12-10T07:51:12.673Z,1016.59
2016-12-10T07:51:53.219Z,1016.68
2016-12-10T07:52:33.771Z,1016.65
2016-12-10T07:53:14.299Z,1016.69
2016-12-10T07:53:54.767Z,1016.77
2016-12-10T07:54:35.239Z,1016.76
2016-12-10T07:55:16.916Z,1016.66
2016-12-10T07:55:57.387Z,1016.72
2016-12-10T07:56:37.878Z,1016.74
2016-12-10T07:57:18.439Z,1016.8
2016-12-10T07:57:58.966Z,1016.79
2016-12-10T07:58:39.462Z,1016.8
2016-12-10T07:59:20.115Z,1016.86
2016-12-10T08:00:00.584Z,1016.83
2016-12-10T08:00:41.217Z,1016.8
2016-12-10T08:01:21.642Z,1016.78
2016-12-10T08:02:04.116Z,1016.85
2016-12-10T08:05:51.695Z,1016.82
2016-12-10T08:06:33.688Z,1016.81
2016-12-10T08:07:14.175Z,1016.81
2016-12-10T08:07:54.636Z,1016.85
2016-12-10T08:08:35.091Z,1016.86
2016-12-10T08:09:15.599Z,1016.88
2016-12-10T08:09:56.072Z,1016.83
2016-12-10T08:10:36.545Z,1016.87
2016-12-10T08:11:17.015Z,1016.83
2016-12-10T08:11:57.495Z,1016.87
2016-12-10T08:12:37.995Z,1016.91
2016-12-10T08:13:18.436Z,1016.98
2016-12-10T08:13:58.910Z,1016.88
2016-12-10T08:14:39.416Z,1016.88